createdAt,value
2023-04-19T00:01:14.567Z,4.57
2023-04-19T00:06:21.184Z,3.10
2023-04-19T00:11:26.700Z,2.87
2023-04-19T00:16:32.276Z,3.67
2023-04-19T00:21:37.776Z,3.27
2023-04-19T00:26:43.207Z,3.23
2023-04-19T00:31:49.399Z,2.23
2023-04-19T00:36:54.833Z,4.50
2023-04-19T00:42:01.524Z,2.27
2023-04-19T00:47:07.744Z,3.90
2023-04-19T00:52:13.325Z,4.73
2023-04-19T00:57:19.920Z,6.60
2023-04-19T01:02:28.714Z,3.47
2023-04-19T01:07:35.480Z,4.27
2023-04-19T01:12:40.973Z,1.97
2023-04-19T01:17:48.193Z,3.10
2023-04-19T01:22:53.745Z,2.00
2023-04-19T01:27:59.406Z,8.33
2023-04-19T01:33:04.973Z,2.67
2023-04-19T01:38:10.619Z,3.17
2023-04-19T01:43:22.058Z,3.10
2023-04-19T01:48:27.634Z,2.10
2023-04-19T01:53:33.193Z,2.70
2023-04-19T01:58:39.769Z,2.23
2023-04-19T02:03:45.613Z,4.17
2023-04-19T02:08:51.477Z,3.53
2023-04-19T02:13:56.954Z,3.53
2023-04-19T02:19:02.434Z,2.67
2023-04-19T02:24:08.522Z,3.37
2023-04-19T02:29:13.953Z,2.60
2023-04-19T02:34:19.612Z,3.30
2023-04-19T02:39:25.104Z,2.73
2023-04-19T02:44:31.414Z,3.43
2023-04-19T02:49:38.186Z,4.33
2023-04-19T02:54:44.058Z,4.00
2023-04-19T02:59:49.614Z,1.63
2023-04-19T03:04:55.556Z,6.70
2023-04-19T03:10:01.570Z,4.30
2023-04-19T03:15:10.047Z,2.77
2023-04-19T03:20:17.202Z,2.97
2023-04-19T03:25:23.785Z,2.60
2023-04-19T03:30:31.081Z,3.10
2023-04-19T03:35:37.467Z,1.67
2023-04-19T03:40:44.570Z,5.67
2023-04-19T03:45:52.058Z,5.90
2023-04-19T03:50:58.091Z,5.50
2023-04-19T03:56:04.520Z,4.33
2023-04-19T04:01:21.503Z,3.63
2023-04-19T04:06:28.152Z,2.77
2023-04-19T04:11:34.331Z,5.30
2023-04-19T04:16:40.428Z,2.53
2023-04-19T04:21:46.342Z,3.83
2023-04-19T04:26:52.686Z,2.87
2023-04-19T04:32:00.071Z,3.77
2023-04-19T04:37:09.007Z,4.97
2023-04-19T04:42:15.705Z,7.20
2023-04-19T04:47:22.250Z,2.80
2023-04-19T04:52:30.499Z,3.23
2023-04-19T04:57:40.855Z,3.73
2023-04-19T05:02:48.080Z,5.83
2023-04-19T05:07:54.109Z,4.37
2023-04-19T05:12:59.605Z,3.70
2023-04-19T05:18:07.631Z,5.57
2023-04-19T05:23:13.562Z,2.40
2023-04-19T05:28:20.640Z,1.70
2023-04-19T05:33:34.302Z,3.57
2023-04-19T05:38:40.088Z,3.80
2023-04-19T05:43:45.913Z,3.00
2023-04-19T05:48:52.348Z,5.40
2023-04-19T05:54:10.498Z,1.90
2023-04-19T05:59:17.542Z,6.37
2023-04-19T06:04:23.991Z,3.20
2023-04-19T06:09:30.055Z,4.43
2023-04-19T06:14:35.817Z,4.33
2023-04-19T06:19:41.516Z,4.50
2023-04-19T06:24:47.874Z,3.60
2023-04-19T06:29:53.446Z,3.83
2023-04-19T06:34:58.946Z,4.17
2023-04-19T06:40:06.268Z,5.43
2023-04-19T06:45:12.905Z,3.47
2023-04-19T06:50:18.674Z,3.80
2023-04-19T06:55:24.419Z,3.47
2023-04-19T07:00:29.956Z,3.67
2023-04-19T07:05:36.975Z,6.80
2023-04-19T07:10:43.973Z,2.60
2023-04-19T07:15:49.552Z,6.37
2023-04-19T07:20:54.994Z,3.60
2023-04-19T07:26:00.512Z,4.67
2023-04-19T07:31:06.169Z,4.33
2023-04-19T07:36:12.280Z,2.87
2023-04-19T07:41:18.328Z,4.33
2023-04-19T07:46:23.917Z,4.77
2023-04-19T07:51:29.493Z,3.30
2023-04-19T07:56:35.083Z,4.27
2023-04-19T08:01:40.797Z,3.77
2023-04-19T08:06:46.530Z,4.03
2023-04-19T08:11:53.622Z,6.77
2023-04-19T08:17:22.400Z,5.50
2023-04-19T08:22:06.256Z,3.50
2023-04-19T08:27:12.214Z,4.70
2023-04-19T08:32:17.778Z,6.40
2023-04-19T08:37:26.488Z,4.10
2023-04-19T08:42:37.145Z,4.53
2023-04-19T08:52:58.750Z,3.23
2023-04-19T08:57:58.926Z,3.27
2023-04-19T09:03:04.707Z,3.53
2023-04-19T09:08:30.650Z,4.43
2023-04-19T09:13:40.710Z,3.47
2023-04-19T09:19:11.576Z,3.83
2023-04-19T09:24:07.793Z,4.87
2023-04-19T09:29:16.705Z,3.30
2023-04-19T09:34:24.279Z,3.50
2023-04-19T09:39:36.277Z,3.73
2023-04-19T09:45:16.941Z,4.93
2023-04-19T09:49:49.817Z,2.90
2023-04-19T09:54:56.376Z,3.03
2023-04-19T10:00:04.874Z,8.10
2023-04-19T10:05:20.280Z,4.43
2023-04-19T10:10:33.010Z,5.10
2023-04-19T10:15:49.334Z,5.63
2023-04-19T10:20:54.903Z,4.20
2023-04-19T10:26:00.493Z,4.23
2023-04-19T10:31:06.782Z,4.13
2023-04-19T10:36:14.505Z,3.50
2023-04-19T10:41:20.982Z,4.40
2023-04-19T10:46:30.123Z,2.93
2023-04-19T10:51:38.940Z,6.00
2023-04-19T10:57:06.040Z,4.40
2023-04-19T11:02:28.297Z,6.77
2023-04-19T11:07:39.825Z,5.97
2023-04-19T11:12:46.151Z,4.43
2023-04-19T11:18:08.734Z,6.30
2023-04-19T11:23:01.145Z,3.87
2023-04-19T11:28:07.085Z,5.30
2023-04-19T11:33:14.179Z,3.53
2023-04-19T11:38:19.756Z,6.00
2023-04-19T11:43:25.347Z,3.97
2023-04-19T11:48:30.963Z,5.03
2023-04-19T11:53:36.553Z,5.47
2023-04-19T11:58:50.912Z,4.70
2023-04-19T12:03:57.788Z,4.83
2023-04-19T12:09:06.533Z,5.93
2023-04-19T12:14:14.874Z,4.63
2023-04-19T12:19:20.907Z,4.87
2023-04-19T12:24:26.421Z,5.07
2023-04-19T12:29:32.005Z,6.37
2023-04-19T12:34:37.617Z,6.47
2023-04-19T12:39:43.080Z,5.20
2023-04-19T12:44:48.728Z,4.30
2023-04-19T12:49:55.858Z,5.10
2023-04-19T12:55:01.510Z,4.97
2023-04-19T13:00:10.045Z,8.17
2023-04-19T13:05:15.575Z,4.17
2023-04-19T13:10:21.401Z,6.37
2023-04-19T13:15:28.716Z,5.63
2023-04-19T13:20:34.358Z,6.23
2023-04-19T13:25:41.486Z,4.23
2023-04-19T13:30:46.930Z,7.93
2023-04-19T13:35:52.365Z,4.80
2023-04-19T13:40:57.945Z,5.37
2023-04-19T13:46:03.458Z,5.17
2023-04-19T13:51:09.246Z,7.07
2023-04-19T13:56:15.866Z,6.90
2023-04-19T14:01:22.541Z,7.80
2023-04-19T14:06:28.072Z,7.90
2023-04-19T14:11:34.029Z,6.53
2023-04-19T14:16:39.631Z,4.30
2023-04-19T14:21:45.193Z,6.90
2023-04-19T14:27:03.524Z,6.37
2023-04-19T14:32:05.082Z,6.40
2023-04-19T14:37:06.562Z,6.10
2023-04-19T14:42:12.136Z,6.50
2023-04-19T14:47:17.611Z,6.17
2023-04-19T14:52:24.707Z,7.53
2023-04-19T14:57:30.349Z,6.40
2023-04-19T15:02:37.648Z,8.53
2023-04-19T15:07:43.452Z,5.63
2023-04-19T15:12:48.998Z,4.83
2023-04-19T15:17:54.503Z,8.30
2023-04-19T15:23:00.249Z,7.60
2023-04-19T15:28:06.073Z,8.50
2023-04-19T15:33:11.868Z,8.53
2023-04-19T15:38:19.087Z,9.13
2023-04-19T15:43:25.462Z,10.47
2023-04-19T15:48:31.095Z,9.30
2023-04-19T15:53:37.048Z,11.40
2023-04-19T15:58:43.297Z,7.60
2023-04-19T16:03:48.815Z,12.07
2023-04-19T16:08:54.421Z,7.77
2023-04-19T16:14:00.234Z,9.43
2023-04-19T16:19:20.205Z,7.57
2023-04-19T16:24:26.516Z,7.43
2023-04-19T16:29:32.514Z,9.43
2023-04-19T16:34:38.218Z,7.73
2023-04-19T16:39:43.719Z,12.57
2023-04-19T16:44:49.216Z,8.67
2023-04-19T16:49:56.214Z,8.57
2023-04-19T16:55:03.673Z,5.77
2023-04-19T17:00:10.781Z,9.90
2023-04-19T17:05:16.954Z,11.83
2023-04-19T17:10:22.570Z,9.47
2023-04-19T17:15:28.392Z,7.70
2023-04-19T17:20:34.134Z,11.73
2023-04-19T17:25:39.742Z,8.13
2023-04-19T17:30:47.213Z,7.60
2023-04-19T17:35:52.676Z,7.10
2023-04-19T17:40:58.753Z,9.00
2023-04-19T17:46:04.254Z,10.07
2023-04-19T17:51:09.936Z,6.53
2023-04-19T17:56:15.533Z,9.50
2023-04-19T18:01:21.342Z,7.80
2023-04-19T18:06:27.344Z,6.73
2023-04-19T18:11:32.919Z,8.63
2023-04-19T18:16:38.455Z,10.23
2023-04-19T18:21:44.163Z,13.13
2023-04-19T18:26:49.627Z,10.37
2023-04-19T18:31:55.762Z,7.87
2023-04-19T18:37:04.590Z,9.90
2023-04-19T18:42:10.122Z,9.70
2023-04-19T18:47:15.610Z,8.53
2023-04-19T18:52:21.261Z,9.60
2023-04-19T18:57:27.875Z,10.77
2023-04-19T19:02:34.633Z,8.90
2023-04-19T19:07:41.848Z,8.17
2023-04-19T19:12:47.694Z,7.07
2023-04-19T19:17:53.222Z,8.93
2023-04-19T19:22:59.552Z,9.40
2023-04-19T19:28:09.759Z,10.47
2023-04-19T19:33:14.089Z,8.83
2023-04-19T19:38:19.845Z,8.00
2023-04-19T19:43:25.286Z,10.60
2023-04-19T19:48:32.488Z,9.30
2023-04-19T19:53:38.621Z,7.80
2023-04-19T19:58:49.648Z,7.17
2023-04-19T20:03:51.771Z,8.87
2023-04-19T20:08:57.660Z,9.40
2023-04-19T20:14:03.297Z,7.73
2023-04-19T20:19:31.088Z,8.43
2023-04-19T20:24:38.104Z,8.97
2023-04-19T20:29:43.616Z,9.23
2023-04-19T20:34:49.047Z,7.27
2023-04-19T20:39:56.200Z,11.60
2023-04-19T20:45:01.743Z,9.27
2023-04-19T20:50:08.678Z,12.07
2023-04-19T20:55:14.632Z,9.87
2023-04-19T21:00:20.374Z,8.53
2023-04-19T21:05:27.521Z,10.67
2023-04-19T21:10:33.327Z,9.73
2023-04-19T21:15:38.875Z,12.23
2023-04-19T21:20:44.493Z,10.97
2023-04-19T21:25:50.388Z,10.33
2023-04-19T21:30:56.107Z,13.33
2023-04-19T21:36:01.613Z,10.63
2023-04-19T21:41:08.565Z,11.63
2023-04-19T21:46:14.314Z,9.57
2023-04-19T21:51:19.841Z,14.87
2023-04-19T21:56:25.505Z,10.10
2023-04-19T22:01:30.946Z,12.13
2023-04-19T22:06:37.012Z,8.67
2023-04-19T22:11:43.418Z,14.40
2023-04-19T22:16:49.013Z,13.20
2023-04-19T22:21:55.517Z,10.57
2023-04-19T22:27:02.045Z,12.70
2023-04-19T22:32:07.729Z,9.80
2023-04-19T22:37:13.329Z,9.57
2023-04-19T22:42:18.846Z,14.47
2023-04-19T22:47:24.370Z,10.67
2023-04-19T22:52:29.801Z,10.17
2023-04-19T22:57:35.448Z,9.17
2023-04-19T23:02:41.323Z,12.10
2023-04-19T23:07:46.825Z,13.50
2023-04-19T23:12:54.298Z,12.03
2023-04-19T23:18:01.442Z,10.53
2023-04-19T23:23:08.054Z,11.00
2023-04-19T23:28:13.823Z,11.90
2023-04-19T23:33:19.407Z,12.47
2023-04-19T23:38:25.004Z,12.13
2023-04-19T23:43:31.671Z,10.70
2023-04-19T23:48:37.273Z,12.90
2023-04-19T23:53:42.779Z,9.13
2023-04-19T23:58:48.354Z,8.37
